sensor_id;sensor_type;location;lat;lon;timestamp;P1;durP1;ratioP1;P2;durP2;ratioP2
34489;SDS011;20730;49.372;7.324;2022-08-21T00:00:20;4.63;;;2.30;;
34489;SDS011;20730;49.372;7.324;2022-08-21T00:02:56;7.38;;;2.42;;
34489;SDS011;20730;49.372;7.324;2022-08-21T00:05:27;4.13;;;2.30;;
34489;SDS011;20730;49.372;7.324;2022-08-21T00:07:55;5.07;;;2.38;;
34489;SDS011;20730;49.372;7.324;2022-08-21T00:10:22;6.50;;;2.67;;
34489;SDS011;20730;49.372;7.324;2022-08-21T00:12:50;9.15;;;2.90;;
34489;SDS011;20730;49.372;7.324;2022-08-21T00:15:19;9.60;;;2.55;;
34489;SDS011;20730;49.372;7.324;2022-08-21T00:17:49;7.22;;;2.70;;
34489;SDS011;20730;49.372;7.324;2022-08-21T00:20:16;6.20;;;2.83;;
34489;SDS011;20730;49.372;7.324;2022-08-21T00:22:43;6.28;;;2.40;;
34489;SDS011;20730;49.372;7.324;2022-08-21T00:25:12;5.80;;;2.58;;
34489;SDS011;20730;49.372;7.324;2022-08-21T00:27:40;6.78;;;2.60;;
34489;SDS011;20730;49.372;7.324;2022-08-21T00:30:09;5.97;;;2.47;;
34489;SDS011;20730;49.372;7.324;2022-08-21T00:32:49;5.15;;;2.58;;
34489;SDS011;20730;49.372;7.324;2022-08-21T00:35:17;4.82;;;2.15;;
34489;SDS011;20730;49.372;7.324;2022-08-21T00:37:45;7.18;;;2.70;;
34489;SDS011;20730;49.372;7.324;2022-08-21T00:40:14;6.78;;;3.20;;
34489;SDS011;20730;49.372;7.324;2022-08-21T00:42:42;7.25;;;2.58;;
34489;SDS011;20730;49.372;7.324;2022-08-21T00:45:19;6.65;;;2.55;;
34489;SDS011;20730;49.372;7.324;2022-08-21T00:47:46;10.38;;;3.25;;
34489;SDS011;20730;49.372;7.324;2022-08-21T00:50:13;11.98;;;3.20;;
34489;SDS011;20730;49.372;7.324;2022-08-21T00:52:47;5.55;;;2.53;;
34489;SDS011;20730;49.372;7.324;2022-08-21T00:55:16;8.70;;;2.90;;
34489;SDS011;20730;49.372;7.324;2022-08-21T00:57:45;8.20;;;2.53;;
34489;SDS011;20730;49.372;7.324;2022-08-21T01:00:18;9.18;;;2.72;;
34489;SDS011;20730;49.372;7.324;2022-08-21T01:02:47;8.48;;;2.63;;
34489;SDS011;20730;49.372;7.324;2022-08-21T01:05:14;7.63;;;2.78;;
34489;SDS011;20730;49.372;7.324;2022-08-21T01:07:41;12.10;;;3.10;;
34489;SDS011;20730;49.372;7.324;2022-08-21T01:10:08;10.68;;;2.47;;
34489;SDS011;20730;49.372;7.324;2022-08-21T01:12:45;4.45;;;2.60;;
34489;SDS011;20730;49.372;7.324;2022-08-21T01:15:12;6.45;;;3.17;;
34489;SDS011;20730;49.372;7.324;2022-08-21T01:17:41;8.48;;;3.08;;
34489;SDS011;20730;49.372;7.324;2022-08-21T01:20:08;5.45;;;2.47;;
34489;SDS011;20730;49.372;7.324;2022-08-21T01:22:37;6.65;;;3.00;;
34489;SDS011;20730;49.372;7.324;2022-08-21T01:25:04;6.43;;;2.70;;
34489;SDS011;20730;49.372;7.324;2022-08-21T01:27:32;3.75;;;2.50;;
34489;SDS011;20730;49.372;7.324;2022-08-21T01:30:42;6.65;;;2.30;;
34489;SDS011;20730;49.372;7.324;2022-08-21T01:32:50;6.18;;;2.92;;
34489;SDS011;20730;49.372;7.324;2022-08-21T01:35:18;10.55;;;3.20;;
34489;SDS011;20730;49.372;7.324;2022-08-21T01:37:46;5.47;;;2.67;;
34489;SDS011;20730;49.372;7.324;2022-08-21T01:40:14;5.20;;;2.58;;
34489;SDS011;20730;49.372;7.324;2022-08-21T01:42:44;7.38;;;2.95;;
34489;SDS011;20730;49.372;7.324;2022-08-21T01:45:12;5.05;;;2.63;;
34489;SDS011;20730;49.372;7.324;2022-08-21T01:47:40;5.40;;;2.58;;
34489;SDS011;20730;49.372;7.324;2022-08-21T01:50:10;8.23;;;3.13;;
34489;SDS011;20730;49.372;7.324;2022-08-21T01:52:39;5.82;;;3.00;;
34489;SDS011;20730;49.372;7.324;2022-08-21T01:55:07;6.55;;;2.83;;
34489;SDS011;20730;49.372;7.324;2022-08-21T01:57:34;8.63;;;3.30;;
34489;SDS011;20730;49.372;7.324;2022-08-21T02:00:03;9.25;;;3.00;;
34489;SDS011;20730;49.372;7.324;2022-08-21T02:02:38;7.28;;;3.53;;
34489;SDS011;20730;49.372;7.324;2022-08-21T02:05:05;6.90;;;3.03;;
34489;SDS011;20730;49.372;7.324;2022-08-21T02:07:39;5.53;;;2.75;;
34489;SDS011;20730;49.372;7.324;2022-08-21T02:10:08;5.70;;;2.88;;
34489;SDS011;20730;49.372;7.324;2022-08-21T02:12:36;8.15;;;2.72;;
34489;SDS011;20730;49.372;7.324;2022-08-21T02:15:03;5.95;;;2.88;;
34489;SDS011;20730;49.372;7.324;2022-08-21T02:17:41;6.50;;;3.10;;
34489;SDS011;20730;49.372;7.324;2022-08-21T02:20:10;8.75;;;2.92;;
34489;SDS011;20730;49.372;7.324;2022-08-21T02:22:38;6.93;;;2.97;;
34489;SDS011;20730;49.372;7.324;2022-08-21T02:25:05;4.90;;;2.78;;
34489;SDS011;20730;49.372;7.324;2022-08-21T02:27:37;7.50;;;2.90;;
34489;SDS011;20730;49.372;7.324;2022-08-21T02:30:05;6.38;;;3.35;;
34489;SDS011;20730;49.372;7.324;2022-08-21T02:32:33;11.57;;;3.88;;
34489;SDS011;20730;49.372;7.324;2022-08-21T02:35:00;8.98;;;2.95;;
34489;SDS011;20730;49.372;7.324;2022-08-21T02:37:26;11.63;;;3.20;;
34489;SDS011;20730;49.372;7.324;2022-08-21T02:39:53;6.88;;;2.88;;
34489;SDS011;20730;49.372;7.324;2022-08-21T02:42:20;6.50;;;3.38;;
34489;SDS011;20730;49.372;7.324;2022-08-21T02:44:47;8.02;;;3.60;;
34489;SDS011;20730;49.372;7.324;2022-08-21T02:47:14;10.93;;;3.53;;
34489;SDS011;20730;49.372;7.324;2022-08-21T02:49:41;11.60;;;3.80;;
34489;SDS011;20730;49.372;7.324;2022-08-21T02:52:07;6.00;;;3.38;;
34489;SDS011;20730;49.372;7.324;2022-08-21T02:54:34;9.38;;;3.40;;
34489;SDS011;20730;49.372;7.324;2022-08-21T02:57:01;5.32;;;3.22;;
34489;SDS011;20730;49.372;7.324;2022-08-21T02:59:28;6.70;;;2.95;;
34489;SDS011;20730;49.372;7.324;2022-08-21T03:01:54;6.07;;;2.97;;
34489;SDS011;20730;49.372;7.324;2022-08-21T03:04:22;8.52;;;3.28;;
34489;SDS011;20730;49.372;7.324;2022-08-21T03:06:48;7.10;;;3.30;;
34489;SDS011;20730;49.372;7.324;2022-08-21T03:09:15;8.55;;;3.45;;
34489;SDS011;20730;49.372;7.324;2022-08-21T03:11:42;8.48;;;3.20;;
34489;SDS011;20730;49.372;7.324;2022-08-21T03:14:09;7.13;;;3.17;;
34489;SDS011;20730;49.372;7.324;2022-08-21T03:16:35;7.65;;;3.15;;
34489;SDS011;20730;49.372;7.324;2022-08-21T03:19:02;8.88;;;3.40;;
34489;SDS011;20730;49.372;7.324;2022-08-21T03:21:29;5.43;;;2.92;;
34489;SDS011;20730;49.372;7.324;2022-08-21T03:23:56;5.85;;;2.75;;
34489;SDS011;20730;49.372;7.324;2022-08-21T03:26:23;8.00;;;3.25;;
34489;SDS011;20730;49.372;7.324;2022-08-21T03:28:50;7.53;;;3.28;;
34489;SDS011;20730;49.372;7.324;2022-08-21T03:31:17;7.32;;;3.33;;
34489;SDS011;20730;49.372;7.324;2022-08-21T03:33:44;6.90;;;3.53;;
34489;SDS011;20730;49.372;7.324;2022-08-21T03:36:11;10.32;;;3.03;;
34489;SDS011;20730;49.372;7.324;2022-08-21T03:38:38;8.80;;;3.15;;
34489;SDS011;20730;49.372;7.324;2022-08-21T03:41:06;8.98;;;3.17;;
34489;SDS011;20730;49.372;7.324;2022-08-21T03:43:33;8.40;;;3.10;;
34489;SDS011;20730;49.372;7.324;2022-08-21T03:46:01;4.63;;;3.30;;
34489;SDS011;20730;49.372;7.324;2022-08-21T03:48:29;9.25;;;3.40;;
34489;SDS011;20730;49.372;7.324;2022-08-21T03:50:56;9.68;;;3.60;;
34489;SDS011;20730;49.372;7.324;2022-08-21T03:53:23;8.63;;;3.80;;
34489;SDS011;20730;49.372;7.324;2022-08-21T03:55:51;10.18;;;3.47;;
34489;SDS011;20730;49.372;7.324;2022-08-21T03:58:20;8.30;;;3.17;;
34489;SDS011;20730;49.372;7.324;2022-08-21T04:00:49;7.53;;;3.50;;
34489;SDS011;20730;49.372;7.324;2022-08-21T04:03:16;9.88;;;4.35;;
34489;SDS011;20730;49.372;7.324;2022-08-21T04:05:44;11.15;;;4.28;;
34489;SDS011;20730;49.372;7.324;2022-08-21T04:08:12;11.05;;;4.18;;
34489;SDS011;20730;49.372;7.324;2022-08-21T04:10:40;6.68;;;3.63;;
34489;SDS011;20730;49.372;7.324;2022-08-21T04:13:07;12.50;;;4.57;;
34489;SDS011;20730;49.372;7.324;2022-08-21T04:15:34;10.90;;;4.85;;
34489;SDS011;20730;49.372;7.324;2022-08-21T04:18:02;11.77;;;4.97;;
34489;SDS011;20730;49.372;7.324;2022-08-21T04:20:30;9.25;;;4.32;;
34489;SDS011;20730;49.372;7.324;2022-08-21T04:22:57;9.50;;;4.22;;
34489;SDS011;20730;49.372;7.324;2022-08-21T04:25:24;8.30;;;4.15;;
34489;SDS011;20730;49.372;7.324;2022-08-21T04:27:51;9.50;;;3.92;;
34489;SDS011;20730;49.372;7.324;2022-08-21T04:30:18;6.07;;;3.38;;
34489;SDS011;20730;49.372;7.324;2022-08-21T04:32:46;8.93;;;4.53;;
34489;SDS011;20730;49.372;7.324;2022-08-21T04:35:15;7.85;;;3.78;;
34489;SDS011;20730;49.372;7.324;2022-08-21T04:37:47;6.57;;;3.25;;
34489;SDS011;20730;49.372;7.324;2022-08-21T04:40:16;10.20;;;4.32;;
34489;SDS011;20730;49.372;7.324;2022-08-21T04:43:03;6.53;;;3.70;;
34489;SDS011;20730;49.372;7.324;2022-08-21T04:45:33;7.05;;;3.75;;
34489;SDS011;20730;49.372;7.324;2022-08-21T04:48:04;8.25;;;3.83;;
34489;SDS011;20730;49.372;7.324;2022-08-21T04:50:43;13.30;;;4.38;;
34489;SDS011;20730;49.372;7.324;2022-08-21T04:53:20;11.82;;;3.63;;
34489;SDS011;20730;49.372;7.324;2022-08-21T04:56:10;6.38;;;3.85;;
34489;SDS011;20730;49.372;7.324;2022-08-21T04:58:39;7.65;;;3.95;;
34489;SDS011;20730;49.372;7.324;2022-08-21T05:01:09;9.50;;;3.60;;
34489;SDS011;20730;49.372;7.324;2022-08-21T05:03:39;5.38;;;3.00;;
34489;SDS011;20730;49.372;7.324;2022-08-21T05:06:07;6.45;;;3.38;;
34489;SDS011;20730;49.372;7.324;2022-08-21T05:08:37;6.50;;;3.15;;
34489;SDS011;20730;49.372;7.324;2022-08-21T05:11:04;6.25;;;3.10;;
34489;SDS011;20730;49.372;7.324;2022-08-21T05:13:32;6.55;;;2.72;;
34489;SDS011;20730;49.372;7.324;2022-08-21T05:15:59;7.47;;;3.35;;
34489;SDS011;20730;49.372;7.324;2022-08-21T05:18:26;6.22;;;2.90;;
34489;SDS011;20730;49.372;7.324;2022-08-21T05:20:52;7.05;;;3.10;;
34489;SDS011;20730;49.372;7.324;2022-08-21T05:23:19;6.65;;;2.50;;
34489;SDS011;20730;49.372;7.324;2022-08-21T05:25:46;6.13;;;3.05;;
34489;SDS011;20730;49.372;7.324;2022-08-21T05:28:14;6.72;;;2.70;;
34489;SDS011;20730;49.372;7.324;2022-08-21T05:30:40;7.13;;;3.65;;
34489;SDS011;20730;49.372;7.324;2022-08-21T05:33:07;7.35;;;3.58;;
34489;SDS011;20730;49.372;7.324;2022-08-21T05:35:34;10.18;;;3.13;;
34489;SDS011;20730;49.372;7.324;2022-08-21T05:38:01;6.03;;;3.03;;
34489;SDS011;20730;49.372;7.324;2022-08-21T05:40:28;6.85;;;3.13;;
34489;SDS011;20730;49.372;7.324;2022-08-21T05:42:55;6.18;;;2.83;;
34489;SDS011;20730;49.372;7.324;2022-08-21T05:45:23;3.95;;;2.65;;
34489;SDS011;20730;49.372;7.324;2022-08-21T05:50:39;5.57;;;3.22;;
34489;SDS011;20730;49.372;7.324;2022-08-21T05:53:05;7.78;;;2.78;;
34489;SDS011;20730;49.372;7.324;2022-08-21T05:55:33;5.63;;;2.60;;
34489;SDS011;20730;49.372;7.324;2022-08-21T05:58:08;6.47;;;3.13;;
34489;SDS011;20730;49.372;7.324;2022-08-21T06:00:34;5.25;;;3.15;;
34489;SDS011;20730;49.372;7.324;2022-08-21T06:03:01;7.55;;;2.58;;
34489;SDS011;20730;49.372;7.324;2022-08-21T06:05:28;8.88;;;2.80;;
34489;SDS011;20730;49.372;7.324;2022-08-21T06:08:03;6.22;;;3.00;;
34489;SDS011;20730;49.372;7.324;2022-08-21T06:10:30;6.32;;;2.83;;
34489;SDS011;20730;49.372;7.324;2022-08-21T06:12:57;7.88;;;3.05;;
34489;SDS011;20730;49.372;7.324;2022-08-21T06:15:24;7.57;;;2.65;;
34489;SDS011;20730;49.372;7.324;2022-08-21T06:17:51;5.35;;;2.75;;
34489;SDS011;20730;49.372;7.324;2022-08-21T06:20:19;7.30;;;2.47;;
34489;SDS011;20730;49.372;7.324;2022-08-21T06:22:46;5.22;;;2.65;;
34489;SDS011;20730;49.372;7.324;2022-08-21T06:25:13;8.95;;;2.88;;
34489;SDS011;20730;49.372;7.324;2022-08-21T06:27:40;8.98;;;2.75;;
34489;SDS011;20730;49.372;7.324;2022-08-21T06:30:07;6.22;;;2.63;;
34489;SDS011;20730;49.372;7.324;2022-08-21T06:32:34;5.63;;;2.70;;
34489;SDS011;20730;49.372;7.324;2022-08-21T06:35:01;8.02;;;2.58;;
34489;SDS011;20730;49.372;7.324;2022-08-21T06:37:28;7.45;;;2.63;;
34489;SDS011;20730;49.372;7.324;2022-08-21T06:39:55;8.27;;;3.10;;
34489;SDS011;20730;49.372;7.324;2022-08-21T06:42:24;5.60;;;2.58;;
34489;SDS011;20730;49.372;7.324;2022-08-21T06:44:54;4.80;;;2.38;;
34489;SDS011;20730;49.372;7.324;2022-08-21T06:47:20;5.43;;;2.92;;
34489;SDS011;20730;49.372;7.324;2022-08-21T06:49:47;6.95;;;2.92;;
34489;SDS011;20730;49.372;7.324;2022-08-21T06:52:14;6.00;;;2.38;;
34489;SDS011;20730;49.372;7.324;2022-08-21T06:54:41;3.53;;;2.38;;
34489;SDS011;20730;49.372;7.324;2022-08-21T06:57:08;6.22;;;2.80;;
34489;SDS011;20730;49.372;7.324;2022-08-21T06:59:35;7.00;;;2.40;;
34489;SDS011;20730;49.372;7.324;2022-08-21T07:02:02;5.05;;;2.17;;
34489;SDS011;20730;49.372;7.324;2022-08-21T07:04:29;3.78;;;2.05;;
34489;SDS011;20730;49.372;7.324;2022-08-21T07:06:56;5.45;;;2.20;;
34489;SDS011;20730;49.372;7.324;2022-08-21T07:09:22;5.72;;;2.50;;
34489;SDS011;20730;49.372;7.324;2022-08-21T07:11:52;6.93;;;2.38;;
34489;SDS011;20730;49.372;7.324;2022-08-21T07:14:21;9.90;;;2.80;;
34489;SDS011;20730;49.372;7.324;2022-08-21T07:16:49;5.20;;;2.35;;
34489;SDS011;20730;49.372;7.324;2022-08-21T07:19:17;7.53;;;2.30;;
34489;SDS011;20730;49.372;7.324;2022-08-21T07:21:44;8.02;;;2.45;;
34489;SDS011;20730;49.372;7.324;2022-08-21T07:24:10;4.65;;;2.40;;
34489;SDS011;20730;49.372;7.324;2022-08-21T07:26:37;6.63;;;2.35;;
34489;SDS011;20730;49.372;7.324;2022-08-21T07:29:04;6.07;;;2.50;;
34489;SDS011;20730;49.372;7.324;2022-08-21T07:31:31;6.03;;;2.30;;
34489;SDS011;20730;49.372;7.324;2022-08-21T07:33:58;5.78;;;2.40;;
34489;SDS011;20730;49.372;7.324;2022-08-21T07:36:25;11.23;;;3.28;;
34489;SDS011;20730;49.372;7.324;2022-08-21T07:38:52;4.78;;;2.22;;
34489;SDS011;20730;49.372;7.324;2022-08-21T07:41:20;6.60;;;2.60;;
34489;SDS011;20730;49.372;7.324;2022-08-21T07:43:49;4.65;;;2.20;;
34489;SDS011;20730;49.372;7.324;2022-08-21T07:46:18;4.53;;;1.88;;
34489;SDS011;20730;49.372;7.324;2022-08-21T07:48:45;6.15;;;2.08;;
34489;SDS011;20730;49.372;7.324;2022-08-21T07:51:13;5.53;;;2.30;;
34489;SDS011;20730;49.372;7.324;2022-08-21T07:53:40;4.90;;;2.10;;
34489;SDS011;20730;49.372;7.324;2022-08-21T07:56:07;4.55;;;2.17;;
34489;SDS011;20730;49.372;7.324;2022-08-21T07:58:34;5.78;;;2.50;;
34489;SDS011;20730;49.372;7.324;2022-08-21T08:01:01;5.55;;;2.58;;
34489;SDS011;20730;49.372;7.324;2022-08-21T08:03:28;5.82;;;2.20;;
34489;SDS011;20730;49.372;7.324;2022-08-21T08:05:55;6.57;;;2.53;;
34489;SDS011;20730;49.372;7.324;2022-08-21T08:08:23;6.07;;;2.45;;
34489;SDS011;20730;49.372;7.324;2022-08-21T08:10:50;7.65;;;2.20;;
34489;SDS011;20730;49.372;7.324;2022-08-21T08:13:16;5.57;;;2.20;;
34489;SDS011;20730;49.372;7.324;2022-08-21T08:15:43;8.55;;;2.30;;
34489;SDS011;20730;49.372;7.324;2022-08-21T08:18:10;5.57;;;2.10;;
34489;SDS011;20730;49.372;7.324;2022-08-21T08:20:37;5.65;;;2.67;;
34489;SDS011;20730;49.372;7.324;2022-08-21T08:23:03;6.13;;;2.13;;
34489;SDS011;20730;49.372;7.324;2022-08-21T08:25:30;4.30;;;1.85;;
34489;SDS011;20730;49.372;7.324;2022-08-21T08:28:02;5.68;;;2.20;;
34489;SDS011;20730;49.372;7.324;2022-08-21T08:30:43;4.93;;;2.05;;
34489;SDS011;20730;49.372;7.324;2022-08-21T08:33:10;4.97;;;2.10;;
34489;SDS011;20730;49.372;7.324;2022-08-21T08:35:37;7.85;;;1.92;;
34489;SDS011;20730;49.372;7.324;2022-08-21T08:38:05;4.97;;;1.77;;
34489;SDS011;20730;49.372;7.324;2022-08-21T08:40:41;6.47;;;2.00;;
34489;SDS011;20730;49.372;7.324;2022-08-21T08:43:12;6.38;;;2.00;;
34489;SDS011;20730;49.372;7.324;2022-08-21T08:45:42;6.32;;;1.98;;
34489;SDS011;20730;49.372;7.324;2022-08-21T08:48:14;8.20;;;2.20;;
34489;SDS011;20730;49.372;7.324;2022-08-21T08:50:54;5.97;;;1.90;;
34489;SDS011;20730;49.372;7.324;2022-08-21T08:53:23;5.43;;;2.00;;
34489;SDS011;20730;49.372;7.324;2022-08-21T08:55:57;8.18;;;2.05;;
34489;SDS011;20730;49.372;7.324;2022-08-21T08:58:28;10.27;;;2.00;;
34489;SDS011;20730;49.372;7.324;2022-08-21T09:03:23;6.45;;;1.92;;
34489;SDS011;20730;49.372;7.324;2022-08-21T09:14:08;7.30;;;2.33;;
34489;SDS011;20730;49.372;7.324;2022-08-21T09:27:51;6.13;;;1.98;;
34489;SDS011;20730;49.372;7.324;2022-08-21T09:30:19;6.95;;;2.05;;
34489;SDS011;20730;49.372;7.324;2022-08-21T09:32:52;6.45;;;1.92;;
34489;SDS011;20730;49.372;7.324;2022-08-21T09:35:20;4.70;;;1.98;;
34489;SDS011;20730;49.372;7.324;2022-08-21T09:45:37;7.97;;;2.10;;
34489;SDS011;20730;49.372;7.324;2022-08-21T09:48:15;4.35;;;1.65;;
34489;SDS011;20730;49.372;7.324;2022-08-21T09:50:44;5.45;;;1.77;;
34489;SDS011;20730;49.372;7.324;2022-08-21T09:53:27;3.95;;;1.75;;
34489;SDS011;20730;49.372;7.324;2022-08-21T09:56:05;4.45;;;1.50;;
34489;SDS011;20730;49.372;7.324;2022-08-21T09:58:59;7.53;;;2.03;;
34489;SDS011;20730;49.372;7.324;2022-08-21T10:01:26;8.43;;;2.25;;
34489;SDS011;20730;49.372;7.324;2022-08-21T10:04:09;4.07;;;1.80;;
34489;SDS011;20730;49.372;7.324;2022-08-21T10:06:36;7.10;;;2.00;;
34489;SDS011;20730;49.372;7.324;2022-08-21T10:09:05;5.50;;;1.73;;
34489;SDS011;20730;49.372;7.324;2022-08-21T10:12:31;2.88;;;1.65;;
34489;SDS011;20730;49.372;7.324;2022-08-21T10:17:27;4.38;;;1.67;;
34489;SDS011;20730;49.372;7.324;2022-08-21T10:20:04;8.88;;;1.92;;
34489;SDS011;20730;49.372;7.324;2022-08-21T10:28:14;4.88;;;1.83;;
34489;SDS011;20730;49.372;7.324;2022-08-21T10:30:52;5.80;;;1.83;;
34489;SDS011;20730;49.372;7.324;2022-08-21T10:44:35;5.95;;;2.00;;
34489;SDS011;20730;49.372;7.324;2022-08-21T10:50:10;3.78;;;1.40;;
34489;SDS011;20730;49.372;7.324;2022-08-21T10:55:31;6.82;;;1.80;;
34489;SDS011;20730;49.372;7.324;2022-08-21T10:58:08;4.38;;;1.65;;
34489;SDS011;20730;49.372;7.324;2022-08-21T11:00:41;2.90;;;1.70;;
34489;SDS011;20730;49.372;7.324;2022-08-21T11:03:12;6.07;;;1.90;;
34489;SDS011;20730;49.372;7.324;2022-08-21T11:05:47;4.75;;;1.80;;
34489;SDS011;20730;49.372;7.324;2022-08-21T11:08:38;3.25;;;1.80;;
34489;SDS011;20730;49.372;7.324;2022-08-21T11:11:56;5.78;;;2.10;;
34489;SDS011;20730;49.372;7.324;2022-08-21T11:14:38;5.40;;;1.65;;
34489;SDS011;20730;49.372;7.324;2022-08-21T11:17:16;5.00;;;1.50;;
34489;SDS011;20730;49.372;7.324;2022-08-21T11:22:24;4.75;;;1.80;;
34489;SDS011;20730;49.372;7.324;2022-08-21T11:28:05;3.45;;;1.65;;
34489;SDS011;20730;49.372;7.324;2022-08-21T11:30:48;5.47;;;2.03;;
34489;SDS011;20730;49.372;7.324;2022-08-21T11:50:28;3.08;;;1.45;;
34489;SDS011;20730;49.372;7.324;2022-08-21T11:53:18;1.88;;;1.45;;
34489;SDS011;20730;49.372;7.324;2022-08-21T11:55:53;5.30;;;1.60;;
34489;SDS011;20730;49.372;7.324;2022-08-21T11:58:25;3.97;;;1.52;;
34489;SDS011;20730;49.372;7.324;2022-08-21T12:01:08;4.90;;;1.52;;
34489;SDS011;20730;49.372;7.324;2022-08-21T12:03:39;6.32;;;1.95;;
34489;SDS011;20730;49.372;7.324;2022-08-21T12:06:12;4.93;;;1.77;;
34489;SDS011;20730;49.372;7.324;2022-08-21T12:08:56;4.72;;;1.50;;
34489;SDS011;20730;49.372;7.324;2022-08-21T12:11:25;2.85;;;1.60;;
34489;SDS011;20730;49.372;7.324;2022-08-21T12:14:11;4.80;;;1.67;;
34489;SDS011;20730;49.372;7.324;2022-08-21T12:16:40;6.10;;;2.03;;
34489;SDS011;20730;49.372;7.324;2022-08-21T12:26:58;3.35;;;1.83;;
34489;SDS011;20730;49.372;7.324;2022-08-21T12:31:59;6.72;;;2.60;;
34489;SDS011;20730;49.372;7.324;2022-08-21T12:34:54;4.50;;;1.52;;
34489;SDS011;20730;49.372;7.324;2022-08-21T12:40:02;3.83;;;1.80;;
34489;SDS011;20730;49.372;7.324;2022-08-21T12:45:06;5.10;;;1.80;;
34489;SDS011;20730;49.372;7.324;2022-08-21T12:47:45;3.10;;;1.75;;
34489;SDS011;20730;49.372;7.324;2022-08-21T12:50:26;5.00;;;2.40;;
34489;SDS011;20730;49.372;7.324;2022-08-21T12:53:01;4.75;;;2.15;;
34489;SDS011;20730;49.372;7.324;2022-08-21T12:55:46;4.68;;;2.08;;
34489;SDS011;20730;49.372;7.324;2022-08-21T12:58:17;5.72;;;2.10;;
34489;SDS011;20730;49.372;7.324;2022-08-21T13:00:51;4.03;;;1.92;;
34489;SDS011;20730;49.372;7.324;2022-08-21T13:03:20;3.33;;;1.80;;
34489;SDS011;20730;49.372;7.324;2022-08-21T13:05:47;3.63;;;2.08;;
34489;SDS011;20730;49.372;7.324;2022-08-21T13:08:14;5.88;;;2.10;;
34489;SDS011;20730;49.372;7.324;2022-08-21T13:10:41;3.35;;;2.03;;
34489;SDS011;20730;49.372;7.324;2022-08-21T13:13:12;3.55;;;2.15;;
34489;SDS011;20730;49.372;7.324;2022-08-21T13:16:01;3.58;;;2.30;;
34489;SDS011;20730;49.372;7.324;2022-08-21T13:18:33;3.90;;;1.77;;
34489;SDS011;20730;49.372;7.324;2022-08-21T13:21:10;5.57;;;1.90;;
34489;SDS011;20730;49.372;7.324;2022-08-21T13:23:38;3.67;;;2.10;;
34489;SDS011;20730;49.372;7.324;2022-08-21T13:26:15;4.45;;;2.15;;
34489;SDS011;20730;49.372;7.324;2022-08-21T13:28:44;4.75;;;2.10;;
34489;SDS011;20730;49.372;7.324;2022-08-21T13:31:18;3.03;;;1.63;;
34489;SDS011;20730;49.372;7.324;2022-08-21T13:33:47;5.75;;;1.83;;
34489;SDS011;20730;49.372;7.324;2022-08-21T13:36:17;3.63;;;1.92;;
34489;SDS011;20730;49.372;7.324;2022-08-21T13:38:47;4.88;;;2.00;;
34489;SDS011;20730;49.372;7.324;2022-08-21T13:43:46;3.63;;;1.90;;
34489;SDS011;20730;49.372;7.324;2022-08-21T13:46:17;3.58;;;1.65;;
34489;SDS011;20730;49.372;7.324;2022-08-21T13:48:47;3.30;;;1.63;;
34489;SDS011;20730;49.372;7.324;2022-08-21T13:51:14;3.05;;;1.75;;
34489;SDS011;20730;49.372;7.324;2022-08-21T13:56:07;3.92;;;1.73;;
34489;SDS011;20730;49.372;7.324;2022-08-21T13:58:45;4.43;;;1.83;;
34489;SDS011;20730;49.372;7.324;2022-08-21T14:03:50;4.72;;;1.67;;
34489;SDS011;20730;49.372;7.324;2022-08-21T14:06:21;3.95;;;2.00;;
34489;SDS011;20730;49.372;7.324;2022-08-21T14:08:50;3.53;;;1.67;;
34489;SDS011;20730;49.372;7.324;2022-08-21T14:11:19;2.75;;;1.90;;
34489;SDS011;20730;49.372;7.324;2022-08-21T14:14:00;3.72;;;1.95;;
34489;SDS011;20730;49.372;7.324;2022-08-21T14:17:04;2.75;;;1.48;;
34489;SDS011;20730;49.372;7.324;2022-08-21T14:19:27;4.30;;;1.70;;
34489;SDS011;20730;49.372;7.324;2022-08-21T14:25:06;3.33;;;1.67;;
34489;SDS011;20730;49.372;7.324;2022-08-21T14:27:43;4.28;;;1.95;;
34489;SDS011;20730;49.372;7.324;2022-08-21T14:30:14;4.72;;;1.80;;
34489;SDS011;20730;49.372;7.324;2022-08-21T14:32:44;4.50;;;1.95;;
34489;SDS011;20730;49.372;7.324;2022-08-21T14:35:11;3.42;;;1.63;;
34489;SDS011;20730;49.372;7.324;2022-08-21T14:37:42;2.78;;;1.70;;
34489;SDS011;20730;49.372;7.324;2022-08-21T14:40:09;2.92;;;1.77;;
34489;SDS011;20730;49.372;7.324;2022-08-21T14:42:42;2.97;;;1.45;;
34489;SDS011;20730;49.372;7.324;2022-08-21T14:45:14;3.53;;;1.70;;
34489;SDS011;20730;49.372;7.324;2022-08-21T14:47:43;3.10;;;1.70;;
34489;SDS011;20730;49.372;7.324;2022-08-21T14:50:10;3.70;;;1.75;;
34489;SDS011;20730;49.372;7.324;2022-08-21T14:52:38;3.05;;;1.80;;
34489;SDS011;20730;49.372;7.324;2022-08-21T14:55:06;3.13;;;1.42;;
34489;SDS011;20730;49.372;7.324;2022-08-21T14:57:34;6.10;;;1.98;;
34489;SDS011;20730;49.372;7.324;2022-08-21T15:00:01;2.95;;;1.63;;
34489;SDS011;20730;49.372;7.324;2022-08-21T15:02:30;2.63;;;1.52;;
34489;SDS011;20730;49.372;7.324;2022-08-21T15:04:56;3.33;;;1.73;;
34489;SDS011;20730;49.372;7.324;2022-08-21T15:07:23;3.60;;;1.80;;
34489;SDS011;20730;49.372;7.324;2022-08-21T15:09:50;3.10;;;1.63;;
34489;SDS011;20730;49.372;7.324;2022-08-21T15:12:16;5.20;;;2.00;;
34489;SDS011;20730;49.372;7.324;2022-08-21T15:14:43;3.15;;;1.80;;
34489;SDS011;20730;49.372;7.324;2022-08-21T15:17:10;2.95;;;2.05;;
34489;SDS011;20730;49.372;7.324;2022-08-21T15:19:38;4.22;;;1.88;;
34489;SDS011;20730;49.372;7.324;2022-08-21T15:22:05;6.10;;;2.25;;
34489;SDS011;20730;49.372;7.324;2022-08-21T15:24:44;4.88;;;2.10;;
34489;SDS011;20730;49.372;7.324;2022-08-21T15:27:11;6.10;;;1.88;;
34489;SDS011;20730;49.372;7.324;2022-08-21T15:29:42;2.63;;;1.83;;
34489;SDS011;20730;49.372;7.324;2022-08-21T15:34:42;3.35;;;2.00;;
34489;SDS011;20730;49.372;7.324;2022-08-21T15:37:09;4.53;;;2.40;;
34489;SDS011;20730;49.372;7.324;2022-08-21T15:39:36;8.02;;;2.15;;
34489;SDS011;20730;49.372;7.324;2022-08-21T15:42:05;3.90;;;1.85;;
34489;SDS011;20730;49.372;7.324;2022-08-21T15:44:37;4.57;;;2.10;;
34489;SDS011;20730;49.372;7.324;2022-08-21T15:47:05;4.80;;;2.25;;
34489;SDS011;20730;49.372;7.324;2022-08-21T15:49:33;4.57;;;2.15;;
34489;SDS011;20730;49.372;7.324;2022-08-21T15:52:00;2.08;;;1.52;;
34489;SDS011;20730;49.372;7.324;2022-08-21T15:54:27;2.65;;;1.75;;
34489;SDS011;20730;49.372;7.324;2022-08-21T15:56:53;4.40;;;2.03;;
34489;SDS011;20730;49.372;7.324;2022-08-21T15:59:21;4.22;;;1.75;;
34489;SDS011;20730;49.372;7.324;2022-08-21T16:01:49;3.10;;;1.90;;
34489;SDS011;20730;49.372;7.324;2022-08-21T16:04:21;3.90;;;2.05;;
34489;SDS011;20730;49.372;7.324;2022-08-21T16:06:49;5.07;;;1.80;;
34489;SDS011;20730;49.372;7.324;2022-08-21T16:09:21;5.78;;;2.13;;
34489;SDS011;20730;49.372;7.324;2022-08-21T16:11:48;3.60;;;1.75;;
34489;SDS011;20730;49.372;7.324;2022-08-21T16:14:15;4.85;;;2.30;;
34489;SDS011;20730;49.372;7.324;2022-08-21T16:16:42;4.07;;;2.10;;
34489;SDS011;20730;49.372;7.324;2022-08-21T16:19:09;5.10;;;2.08;;
34489;SDS011;20730;49.372;7.324;2022-08-21T16:21:37;7.38;;;2.08;;
34489;SDS011;20730;49.372;7.324;2022-08-21T16:24:04;3.33;;;1.88;;
34489;SDS011;20730;49.372;7.324;2022-08-21T16:26:31;5.20;;;2.20;;
34489;SDS011;20730;49.372;7.324;2022-08-21T16:28:59;3.53;;;1.90;;
34489;SDS011;20730;49.372;7.324;2022-08-21T16:31:26;2.97;;;1.85;;
34489;SDS011;20730;49.372;7.324;2022-08-21T16:33:53;8.98;;;3.38;;
34489;SDS011;20730;49.372;7.324;2022-08-21T16:36:23;6.90;;;2.30;;
34489;SDS011;20730;49.372;7.324;2022-08-21T16:38:54;6.38;;;2.10;;
34489;SDS011;20730;49.372;7.324;2022-08-21T16:41:22;5.25;;;2.15;;
34489;SDS011;20730;49.372;7.324;2022-08-21T16:43:50;7.22;;;2.80;;
34489;SDS011;20730;49.372;7.324;2022-08-21T16:46:18;3.63;;;1.77;;
34489;SDS011;20730;49.372;7.324;2022-08-21T16:48:46;3.55;;;1.92;;
34489;SDS011;20730;49.372;7.324;2022-08-21T16:51:13;3.92;;;1.77;;
34489;SDS011;20730;49.372;7.324;2022-08-21T16:53:40;4.63;;;1.90;;